Time;durP1;ratioP1;P1;durP2;ratioP2;P2;SDS_P1;SDS_P2;PMS_P1;PMS_P2;Temp;Humidity;BMP_temperature;BMP_pressure;BME280_temperature;BME280_humidity;BME280_pressure;Samples;Min_cycle;Max_cycle;Signal;HPM_P1;HPM_P2
2021/07/07 00:01:06;;;;;;;2.20;2.00;;;;;;;;;;5045259;28;20063;-75
2021/07/07 00:03:32;;;;;;;2.65;2.20;;;;;;;;;;5042348;28;20111;-76
2021/07/07 00:05:57;;;;;;;2.60;2.10;;;;;;;;;;5041958;28;20448;-76
2021/07/07 00:08:23;;;;;;;2.67;2.30;;;;;;;;;;5043740;28;20295;-75
2021/07/07 00:10:49;;;;;;;4.40;2.17;;;;;;;;;;5045642;28;20443;-76
2021/07/07 00:13:17;;;;;;;51.72;5.13;;;;;;;;;;5043985;28;20497;-76
2021/07/07 00:15:43;;;;;;;3.70;2.87;;;;;;;;;;5044297;28;20032;-76
2021/07/07 00:18:10;;;;;;;3.60;2.92;;;;;;;;;;5044312;28;20527;-76
2021/07/07 00:20:38;;;;;;;3.22;2.67;;;;;;;;;;5045340;28;20395;-76
2021/07/07 00:23:04;;;;;;;3.30;2.97;;;;;;;;;;5048792;28;20104;-76
2021/07/07 00:25:30;;;;;;;4.40;3.30;;;;;;;;;;5041736;28;20743;-77
2021/07/07 00:27:56;;;;;;;4.05;2.83;;;;;;;;;;5046426;28;20291;-76
2021/07/07 00:30:27;;;;;;;4.35;3.08;;;;;;;;;;5047270;28;20020;-76
2021/07/07 00:32:52;;;;;;;4.65;2.78;;;;;;;;;;5049861;28;20095;-76
2021/07/07 00:35:18;;;;;;;5.07;2.90;;;;;;;;;;5048737;28;20555;-76
2021/07/07 00:37:43;;;;;;;3.58;2.90;;;;;;;;;;5043303;28;20053;-76
2021/07/07 00:40:09;;;;;;;4.47;2.53;;;;;;;;;;5048304;28;20445;-76
2021/07/07 00:42:34;;;;;;;3.67;2.80;;;;;;;;;;5041743;28;20131;-76
2021/07/07 00:45:00;;;;;;;3.40;2.63;;;;;;;;;;5046430;28;20424;-76
2021/07/07 00:47:25;;;;;;;4.55;2.92;;;;;;;;;;5045284;28;20131;-76
2021/07/07 00:49:51;;;;;;;4.78;2.85;;;;;;;;;;5047963;28;20021;-76
2021/07/07 00:52:19;;;;;;;2.92;2.53;;;;;;;;;;5047471;28;20079;-76
2021/07/07 00:54:46;;;;;;;6.13;2.63;;;;;;;;;;5044840;28;20445;-76
2021/07/07 00:57:13;;;;;;;3.38;2.90;;;;;;;;;;5045010;28;20309;-76
2021/07/07 00:59:40;;;;;;;3.65;2.70;;;;;;;;;;5049082;28;20083;-76
2021/07/07 01:02:06;;;;;;;10.27;2.97;;;;;;;;;;5046278;28;20139;-76
2021/07/07 01:04:31;;;;;;;4.63;2.72;;;;;;;;;;5044358;28;20108;-76
2021/07/07 01:06:57;;;;;;;3.63;2.90;;;;;;;;;;5038514;28;20021;-76
2021/07/07 01:09:22;;;;;;;3.38;2.55;;;;;;;;;;5049681;28;20078;-76
2021/07/07 01:11:48;;;;;;;6.15;3.00;;;;;;;;;;5043006;28;20452;-77
2021/07/07 01:14:13;;;;;;;6.93;3.22;;;;;;;;;;5047062;28;20021;-76
2021/07/07 01:16:43;;;;;;;3.80;3.17;;;;;;;;;;5046656;28;20016;-76
2021/07/07 01:19:11;;;;;;;4.28;2.95;;;;;;;;;;5042351;28;20362;-76
2021/07/07 01:21:42;;;;;;;5.97;3.20;;;;;;;;;;5047622;28;20043;-76
2021/07/07 01:24:07;;;;;;;4.53;2.85;;;;;;;;;;5047332;28;20022;-76
2021/07/07 01:26:33;;;;;;;5.13;3.67;;;;;;;;;;5045217;28;20373;-76
2021/07/07 01:28:58;;;;;;;5.88;3.80;;;;;;;;;;5042006;28;20056;-76
2021/07/07 01:31:24;;;;;;;3.47;3.17;;;;;;;;;;5047277;28;20512;-76
2021/07/07 01:33:49;;;;;;;4.80;3.08;;;;;;;;;;5045379;28;20544;-76
2021/07/07 01:36:14;;;;;;;3.70;2.97;;;;;;;;;;5042987;28;20103;-75
2021/07/07 01:38:40;;;;;;;5.25;3.55;;;;;;;;;;5042502;28;20503;-75
2021/07/07 01:41:05;;;;;;;4.75;3.10;;;;;;;;;;5041966;28;20461;-76
2021/07/07 01:43:31;;;;;;;4.70;3.15;;;;;;;;;;5042668;28;20036;-76
2021/07/07 01:45:56;;;;;;;3.83;3.40;;;;;;;;;;5045963;28;20028;-77
2021/07/07 01:48:22;;;;;;;4.03;3.15;;;;;;;;;;5046467;28;20032;-77
2021/07/07 01:50:47;;;;;;;4.45;3.17;;;;;;;;;;5044525;28;20401;-77
2021/07/07 01:53:14;;;;;;;4.07;3.10;;;;;;;;;;5047626;28;20068;-77
2021/07/07 01:55:40;;;;;;;6.30;3.10;;;;;;;;;;5041572;28;20029;-77
2021/07/07 01:58:05;;;;;;;4.00;3.22;;;;;;;;;;5044744;28;20025;-77
2021/07/07 02:00:34;;;;;;;3.83;3.00;;;;;;;;;;5046170;28;20143;-77
2021/07/07 02:03:00;;;;;;;2.90;2.65;;;;;;;;;;5043017;28;20162;-77
2021/07/07 02:05:33;;;;;;;3.42;2.80;;;;;;;;;;5047041;28;20029;-77
2021/07/07 02:08:00;;;;;;;3.83;2.65;;;;;;;;;;5042954;28;20167;-77
2021/07/07 02:10:26;;;;;;;3.25;2.65;;;;;;;;;;5043117;28;20032;-77
2021/07/07 02:12:52;;;;;;;1999.90;999.90;;;;;;;;;;5043013;28;20021;-77
2021/07/07 02:15:21;;;;;;;1999.90;999.90;;;;;;;;;;5048035;28;20037;-77
2021/07/07 02:17:47;;;;;;;;;;;;;;;;;;5045146;28;20025;-77
2021/07/07 02:20:14;;;;;;;1999.90;999.90;;;;;;;;;;5047479;28;19913;-77
2021/07/07 02:22:41;;;;;;;1999.90;999.90;;;;;;;;;;5043262;28;20126;-78
2021/07/07 02:25:08;;;;;;;1999.90;999.90;;;;;;;;;;5046076;28;20044;-78
2021/07/07 02:27:34;;;;;;;1999.90;999.90;;;;;;;;;;5043404;28;20102;-77
2021/07/07 02:30:00;;;;;;;1999.90;999.90;;;;;;;;;;5040279;28;20572;-77
2021/07/07 02:32:26;;;;;;;1999.90;999.90;;;;;;;;;;5042324;28;20029;-77
2021/07/07 02:34:51;;;;;;;1999.90;999.90;;;;;;;;;;5041207;28;20121;-77
2021/07/07 02:37:16;;;;;;;1999.90;999.90;;;;;;;;;;5040961;28;20028;-77
2021/07/07 02:39:42;;;;;;;1999.90;999.90;;;;;;;;;;5042335;28;20364;-77
2021/07/07 02:42:07;;;;;;;1999.90;999.90;;;;;;;;;;5040246;28;20170;-77
2021/07/07 02:44:33;;;;;;;1999.90;999.90;;;;;;;;;;5048727;28;20065;-76
2021/07/07 02:46:58;;;;;;;1999.90;999.90;;;;;;;;;;5041967;28;20536;-77
2021/07/07 02:49:25;;;;;;;1999.90;999.90;;;;;;;;;;5040678;28;20115;-77
2021/07/07 02:51:50;;;;;;;1999.90;999.90;;;;;;;;;;5044353;28;20052;-76
2021/07/07 02:54:16;;;;;;;1999.90;999.90;;;;;;;;;;5041188;28;20141;-76
2021/07/07 02:56:41;;;;;;;1999.90;999.90;;;;;;;;;;5042057;28;20025;-76
2021/07/07 02:59:06;;;;;;;1999.90;999.90;;;;;;;;;;5047643;28;20029;-77
2021/07/07 03:01:32;;;;;;;1999.90;999.90;;;;;;;;;;5040925;28;20021;-77
2021/07/07 03:03:57;;;;;;;1999.90;999.90;;;;;;;;;;5044434;28;20041;-76
2021/07/07 03:06:23;;;;;;;1999.90;999.90;;;;;;;;;;5040762;28;20033;-76
2021/07/07 03:08:48;;;;;;;1999.90;999.90;;;;;;;;;;5039957;28;20025;-76
2021/07/07 03:11:13;;;;;;;1999.90;999.90;;;;;;;;;;5046211;28;20032;-76
2021/07/07 03:13:39;;;;;;;1999.90;999.90;;;;;;;;;;5045279;28;20036;-77
2021/07/07 03:16:04;;;;;;;1999.90;999.90;;;;;;;;;;5044342;28;20040;-76
2021/07/07 03:18:30;;;;;;;1999.90;999.90;;;;;;;;;;5042715;28;20481;-77
2021/07/07 03:20:56;;;;;;;1999.90;999.90;;;;;;;;;;5038544;28;20086;-77
2021/07/07 03:23:23;;;;;;;1999.90;999.90;;;;;;;;;;5040516;28;20129;-78
2021/07/07 03:25:50;;;;;;;1999.90;999.90;;;;;;;;;;5045263;28;20175;-78
2021/07/07 03:28:17;;;;;;;1999.90;999.90;;;;;;;;;;5043449;28;20040;-78
2021/07/07 03:30:43;;;;;;;1999.90;999.90;;;;;;;;;;5041451;28;20032;-78
2021/07/07 03:33:09;;;;;;;1999.90;999.90;;;;;;;;;;5047861;28;20029;-78
2021/07/07 03:35:35;;;;;;;1999.90;999.90;;;;;;;;;;5045596;28;20036;-78
2021/07/07 03:38:00;;;;;;;1999.90;999.90;;;;;;;;;;5045199;28;20027;-78
2021/07/07 03:40:28;;;;;;;1999.90;999.90;;;;;;;;;;5047269;28;20139;-77
2021/07/07 03:42:53;;;;;;;1999.90;999.90;;;;;;;;;;5046255;28;20032;-77
2021/07/07 03:45:19;;;;;;;1999.90;999.90;;;;;;;;;;5039260;28;20025;-77
2021/07/07 03:47:45;;;;;;;1999.90;999.90;;;;;;;;;;5043931;28;20101;-77
2021/07/07 03:50:12;;;;;;;1999.90;999.90;;;;;;;;;;5042149;28;20115;-76
2021/07/07 03:52:39;;;;;;;1999.90;999.90;;;;;;;;;;5048073;28;20028;-78
2021/07/07 03:55:07;;;;;;;1999.90;999.90;;;;;;;;;;5047289;28;20036;-77
2021/07/07 03:57:32;;;;;;;1999.90;999.90;;;;;;;;;;5047077;28;20107;-77
2021/07/07 03:59:58;;;;;;;1999.90;999.90;;;;;;;;;;5051058;28;20443;-77
2021/07/07 04:02:23;;;;;;;1999.90;999.90;;;;;;;;;;5042008;28;20029;-77
2021/07/07 04:04:49;;;;;;;1999.90;999.90;;;;;;;;;;5051505;28;20408;-77
2021/07/07 04:07:14;;;;;;;1999.90;999.90;;;;;;;;;;5047516;28;20053;-77
2021/07/07 04:09:39;;;;;;;8.13;7.82;;;;;;;;;;5044676;28;20028;-77
2021/07/07 04:12:05;;;;;;;8.38;8.07;;;;;;;;;;5042206;28;20021;-77
2021/07/07 04:14:31;;;;;;;7.78;7.47;;;;;;;;;;5050713;28;20341;-77
2021/07/07 04:16:58;;;;;;;9.98;9.45;;;;;;;;;;5049450;28;20419;-77
2021/07/07 04:19:27;;;;;;;8.25;7.95;;;;;;;;;;5045892;28;20044;-77
2021/07/07 04:21:53;;;;;;;8.65;8.35;;;;;;;;;;5038276;28;20110;-77
2021/07/07 04:24:19;;;;;;;8.10;7.80;;;;;;;;;;5048602;28;20401;-77
2021/07/07 04:26:46;;;;;;;8.00;7.70;;;;;;;;;;5040828;28;20021;-76
2021/07/07 04:29:12;;;;;;;8.95;8.63;;;;;;;;;;5049436;28;20043;-76
2021/07/07 04:31:39;;;;;;;10.20;9.80;;;;;;;;;;5042920;28;20033;-76
2021/07/07 04:34:05;;;;;;;9.90;9.50;;;;;;;;;;5043885;28;20489;-76
2021/07/07 04:36:35;;;;;;;1999.90;999.90;;;;;;;;;;5038650;28;20029;-75
2021/07/07 04:39:02;;;;;;;1999.90;999.90;;;;;;;;;;5046700;28;20496;-76
2021/07/07 04:41:28;;;;;;;1999.90;999.90;;;;;;;;;;5042992;28;20488;-76
2021/07/07 04:43:53;;;;;;;1999.90;999.90;;;;;;;;;;5041180;28;20026;-76
2021/07/07 04:46:19;;;;;;;1999.90;999.90;;;;;;;;;;5044798;28;20033;-76
2021/07/07 04:48:47;;;;;;;1999.90;999.90;;;;;;;;;;5043321;28;20029;-80
2021/07/07 04:51:13;;;;;;;1999.90;999.90;;;;;;;;;;5043837;28;20032;-78
2021/07/07 04:53:39;;;;;;;1999.90;999.90;;;;;;;;;;5045865;28;20499;-79
2021/07/07 04:56:06;;;;;;;1999.90;999.90;;;;;;;;;;5045338;28;20100;-78
2021/07/07 04:58:31;;;;;;;1999.90;999.90;;;;;;;;;;5045589;28;20055;-78
2021/07/07 05:00:57;;;;;;;1999.90;999.90;;;;;;;;;;5046990;28;20048;-77
2021/07/07 05:03:22;;;;;;;1999.90;999.90;;;;;;;;;;5044411;28;20032;-78
2021/07/07 05:05:48;;;;;;;1999.90;999.90;;;;;;;;;;5044047;28;20029;-78
2021/07/07 05:08:13;;;;;;;1999.90;999.90;;;;;;;;;;5045626;28;20036;-78
2021/07/07 05:10:39;;;;;;;1999.90;999.90;;;;;;;;;;5042230;28;20471;-79
2021/07/07 05:13:05;;;;;;;1999.90;999.90;;;;;;;;;;5044052;28;20025;-79
2021/07/07 05:15:32;;;;;;;1999.90;999.90;;;;;;;;;;5047403;28;20071;-78
2021/07/07 05:17:57;;;;;;;1999.90;999.90;;;;;;;;;;5042712;28;20487;-79
2021/07/07 05:20:23;;;;;;;1999.90;999.90;;;;;;;;;;5045627;28;20037;-80
2021/07/07 05:22:48;;;;;;;1999.90;999.90;;;;;;;;;;5044456;28;20049;-79
2021/07/07 05:25:16;;;;;;;149.68;30.20;;;;;;;;;;5048059;28;20024;-79
2021/07/07 05:27:42;;;;;;;1999.90;999.90;;;;;;;;;;5041671;28;20530;-79
2021/07/07 05:30:10;;;;;;;1999.90;999.90;;;;;;;;;;5046061;28;20072;-78
2021/07/07 05:32:35;;;;;;;4.07;3.85;;;;;;;;;;5044644;28;20063;-77
2021/07/07 05:35:02;;;;;;;3.88;3.67;;;;;;;;;;5041395;28;20041;-78
2021/07/07 05:37:28;;;;;;;4.90;4.53;;;;;;;;;;5046195;28;20016;-79
2021/07/07 05:39:54;;;;;;;3.30;3.20;;;;;;;;;;5044726;28;20442;-79
2021/07/07 05:42:21;;;;;;;4.03;3.83;;;;;;;;;;5044394;28;20029;-78
2021/07/07 05:44:48;;;;;;;3.58;3.47;;;;;;;;;;5047292;28;20472;-79
2021/07/07 05:47:14;;;;;;;3.55;3.45;;;;;;;;;;5046759;28;20032;-79
2021/07/07 05:49:39;;;;;;;3.50;3.30;;;;;;;;;;5043369;28;20025;-78
2021/07/07 05:52:05;;;;;;;3.45;3.25;;;;;;;;;;5048324;28;20499;-78
2021/07/07 05:54:31;;;;;;;4.32;4.03;;;;;;;;;;5046601;28;20044;-78
2021/07/07 05:56:57;;;;;;;3.72;3.53;;;;;;;;;;5041672;28;20079;-78
2021/07/07 05:59:23;;;;;;;4.00;3.80;;;;;;;;;;5044968;28;20433;-78
2021/07/07 06:01:48;;;;;;;4.25;3.95;;;;;;;;;;5039426;28;20016;-79
2021/07/07 06:04:14;;;;;;;4.45;4.07;;;;;;;;;;5043324;28;20052;-79
2021/07/07 06:06:40;;;;;;;3.75;3.55;;;;;;;;;;5040537;28;20394;-79
2021/07/07 06:09:05;;;;;;;3.53;3.42;;;;;;;;;;5039215;28;20033;-81
2021/07/07 06:11:32;;;;;;;3.60;3.42;;;;;;;;;;5043113;28;20044;-81
2021/07/07 06:13:57;;;;;;;5.10;4.72;;;;;;;;;;5045456;28;20033;-79
2021/07/07 06:16:23;;;;;;;5.43;3.97;;;;;;;;;;5041813;28;20131;-79
2021/07/07 06:18:49;;;;;;;4.05;3.85;;;;;;;;;;5045183;28;20025;-79
2021/07/07 06:21:14;;;;;;;3.60;3.50;;;;;;;;;;5043092;28;20021;-79
2021/07/07 06:23:40;;;;;;;5.93;5.43;;;;;;;;;;5042219;28;20470;-80
2021/07/07 06:26:05;;;;;;;9.32;4.93;;;;;;;;;;5040785;28;20060;-80
2021/07/07 06:28:31;;;;;;;6.85;6.45;;;;;;;;;;5039496;28;20029;-80
2021/07/07 06:30:56;;;;;;;4.18;4.07;;;;;;;;;;5042504;28;20086;-82
2021/07/07 06:33:22;;;;;;;4.22;4.03;;;;;;;;;;5043932;28;20032;-82
2021/07/07 06:35:49;;;;;;;4.15;3.95;;;;;;;;;;5034604;28;20543;-83
2021/07/07 06:38:17;;;;;;;4.65;4.45;;;;;;;;;;5043769;28;20496;-83
2021/07/07 06:40:43;;;;;;;26.73;25.58;;;;;;;;;;5045742;28;20068;-82
2021/07/07 06:43:08;;;;;;;222.38;211.25;;;;;;;;;;5038408;28;20364;-83
2021/07/07 06:45:37;;;;;;;1999.90;999.90;;;;;;;;;;5044454;28;20430;-82
2021/07/07 06:48:07;;;;;;;1999.90;999.90;;;;;;;;;;5047158;28;20056;-85
2021/07/07 06:50:33;;;;;;;1999.90;999.90;;;;;;;;;;5063529;28;20245;-86
2021/07/07 06:52:59;;;;;;;1999.90;999.90;;;;;;;;;;5047976;28;20025;-85
2021/07/07 06:55:24;;;;;;;3.40;3.30;;;;;;;;;;5041755;28;20033;-85
2021/07/07 06:57:50;;;;;;;3.92;3.83;;;;;;;;;;5041190;28;20024;-85
2021/07/07 07:00:17;;;;;;;3.85;3.75;;;;;;;;;;5039070;28;20033;-85
2021/07/07 07:02:42;;;;;;;4.75;4.55;;;;;;;;;;5042532;28;20424;-84
2021/07/07 07:05:09;;;;;;;4.68;4.47;;;;;;;;;;5044049;28;20112;-84
2021/07/07 07:07:36;;;;;;;61.33;58.53;;;;;;;;;;5034726;28;20033;-84
2021/07/07 07:10:02;;;;;;;71.18;68.07;;;;;;;;;;5040207;28;20033;-84
2021/07/07 07:12:28;;;;;;;43.22;41.33;;;;;;;;;;5042829;28;20047;-82
2021/07/07 07:14:54;;;;;;;142.48;133.73;;;;;;;;;;5041678;28;20108;-81
2021/07/07 07:17:24;;;;;;;139.65;133.40;;;;;;;;;;5041186;28;20437;-80
2021/07/07 07:19:51;;;;;;;232.65;220.77;;;;;;;;;;5042050;28;20031;-80
2021/07/07 07:22:17;;;;;;;1999.90;999.90;;;;;;;;;;5036203;28;20159;-81
2021/07/07 07:24:44;;;;;;;1999.90;999.90;;;;;;;;;;5036515;28;20068;-81
2021/07/07 07:27:09;;;;;;;1999.90;999.90;;;;;;;;;;5047006;28;20024;-81
2021/07/07 07:29:40;;;;;;;1999.90;999.90;;;;;;;;;;5046913;28;20178;-81
2021/07/07 07:32:06;;;;;;;1999.90;999.90;;;;;;;;;;5045912;28;20116;-81
2021/07/07 07:34:32;;;;;;;1999.90;999.90;;;;;;;;;;5044233;28;20033;-81
2021/07/07 07:37:00;;;;;;;1999.90;999.90;;;;;;;;;;5044194;28;20248;-81
2021/07/07 07:39:27;;;;;;;1999.90;999.90;;;;;;;;;;5050522;28;20495;-79
2021/07/07 07:41:53;;;;;;;1999.90;999.90;;;;;;;;;;5049586;28;20037;-83
2021/07/07 07:44:19;;;;;;;1999.90;999.90;;;;;;;;;;5047227;28;20035;-82
2021/07/07 07:46:45;;;;;;;1999.90;999.90;;;;;;;;;;5041393;28;20400;-85
2021/07/07 07:49:13;;;;;;;1999.90;999.90;;;;;;;;;;5049864;28;20497;-83
2021/07/07 07:51:39;;;;;;;1999.90;999.90;;;;;;;;;;5046140;28;20029;-83
2021/07/07 07:54:04;;;;;;;1999.90;999.90;;;;;;;;;;5050138;28;20312;-82
2021/07/07 07:56:30;;;;;;;1999.90;999.90;;;;;;;;;;5043876;28;20122;-82
2021/07/07 07:58:55;;;;;;;1999.90;999.90;;;;;;;;;;5049858;28;20029;-83
2021/07/07 08:01:21;;;;;;;1999.90;999.90;;;;;;;;;;5048165;28;20033;-81
2021/07/07 08:03:47;;;;;;;1999.90;999.90;;;;;;;;;;5045901;28;20024;-81
2021/07/07 08:06:12;;;;;;;1999.90;999.90;;;;;;;;;;5042924;28;20083;-81
2021/07/07 08:08:38;;;;;;;1999.90;999.90;;;;;;;;;;5046288;28;20479;-81
2021/07/07 08:11:03;;;;;;;1999.90;999.90;;;;;;;;;;5043758;28;20027;-82
2021/07/07 08:13:29;;;;;;;1999.90;999.90;;;;;;;;;;5046780;28;20504;-81
2021/07/07 08:15:55;;;;;;;23.70;3.42;;;;;;;;;;5041778;28;20049;-81
2021/07/07 08:18:20;;;;;;;2.95;2.85;;;;;;;;;;5045523;28;20111;-82
2021/07/07 08:20:46;;;;;;;3.38;3.28;;;;;;;;;;5043778;28;20492;-81
2021/07/07 08:23:11;;;;;;;3.20;3.10;;;;;;;;;;5042774;28;20385;-82
2021/07/07 08:25:37;;;;;;;3.83;3.63;;;;;;;;;;5051184;28;20032;-81
2021/07/07 08:28:03;;;;;;;3.20;3.10;;;;;;;;;;5047234;28;20024;-81
2021/07/07 08:30:29;;;;;;;4.60;4.20;;;;;;;;;;5044006;28;20393;-81
2021/07/07 08:32:55;;;;;;;1999.90;999.90;;;;;;;;;;5061810;28;20022;-81
2021/07/07 08:35:20;;;;;;;6.10;3.00;;;;;;;;;;5049322;28;20403;-81
2021/07/07 08:37:46;;;;;;;4.13;3.33;;;;;;;;;;5046050;28;20278;-81
2021/07/07 08:40:14;;;;;;;1999.90;999.90;;;;;;;;;;5045285;28;20532;-81
2021/07/07 08:42:42;;;;;;;1999.90;999.90;;;;;;;;;;5042547;28;20040;-80
2021/07/07 08:45:10;;;;;;;1999.90;999.90;;;;;;;;;;5041250;28;20033;-80
2021/07/07 08:47:37;;;;;;;1999.90;999.90;;;;;;;;;;5045703;28;20597;-81
2021/07/07 08:50:09;;;;;;;1999.90;999.90;;;;;;;;;;5043759;28;20844;-80
2021/07/07 08:52:37;;;;;;;1999.90;999.90;;;;;;;;;;5056183;28;20468;-85
2021/07/07 08:55:03;;;;;;;1999.90;999.90;;;;;;;;;;5049586;28;20189;-84
2021/07/07 08:57:28;;;;;;;1999.90;999.90;;;;;;;;;;5045822;28;20145;-82
2021/07/07 08:59:54;;;;;;;1999.90;999.90;;;;;;;;;;5038723;28;20031;-81
2021/07/07 09:02:20;;;;;;;1999.90;999.90;;;;;;;;;;5044463;28;20508;-82
2021/07/07 09:04:46;;;;;;;1999.90;999.90;;;;;;;;;;5042796;28;20033;-82
2021/07/07 09:07:17;;;;;;;1999.90;999.90;;;;;;;;;;5045581;28;20037;-82
2021/07/07 09:09:51;;;;;;;1999.90;999.90;;;;;;;;;;5045673;28;20029;-83
2021/07/07 09:12:18;;;;;;;1999.90;999.90;;;;;;;;;;5042161;28;20060;-82
2021/07/07 09:14:45;;;;;;;1999.90;999.90;;;;;;;;;;5043204;28;20082;-82
2021/07/07 09:17:13;;;;;;;1999.90;999.90;;;;;;;;;;5044395;28;20031;-82
2021/07/07 09:19:39;;;;;;;1999.90;999.90;;;;;;;;;;5043831;28;20409;-82
2021/07/07 09:22:06;;;;;;;1999.90;999.90;;;;;;;;;;5046716;28;20020;-82
2021/07/07 09:24:33;;;;;;;1999.90;999.90;;;;;;;;;;5041536;28;20064;-82
2021/07/07 09:27:03;;;;;;;1999.90;999.90;;;;;;;;;;5045828;28;20045;-82
2021/07/07 09:29:52;;;;;;;1526.43;759.85;;;;;;;;;;5046997;28;20048;-81
2021/07/07 09:32:29;;;;;;;1999.90;999.90;;;;;;;;;;5044243;28;20082;-81
2021/07/07 09:35:00;;;;;;;1999.90;999.90;;;;;;;;;;5045408;28;20374;-80
2021/07/07 09:37:36;;;;;;;1999.90;999.90;;;;;;;;;;5044712;28;20311;-81
2021/07/07 09:40:04;;;;;;;1999.90;999.90;;;;;;;;;;5042756;28;20032;-81
2021/07/07 09:42:31;;;;;;;1999.90;999.90;;;;;;;;;;5044428;28;20036;-81
2021/07/07 09:44:59;;;;;;;1999.90;999.90;;;;;;;;;;5044653;28;20032;-81
2021/07/07 09:47:26;;;;;;;1999.90;999.90;;;;;;;;;;5045291;28;20111;-81
2021/07/07 09:49:51;;;;;;;1999.90;999.90;;;;;;;;;;5043004;28;20140;-81
2021/07/07 09:52:20;;;;;;;1999.90;999.90;;;;;;;;;;5039093;28;20503;-81
2021/07/07 09:54:46;;;;;;;1999.90;999.90;;;;;;;;;;5043287;28;20536;-81
2021/07/07 09:57:13;;;;;;;1999.90;999.90;;;;;;;;;;5039366;28;20029;-81
2021/07/07 09:59:38;;;;;;;1999.90;999.90;;;;;;;;;;5046754;28;20032;-81
2021/07/07 10:02:04;;;;;;;1999.90;999.90;;;;;;;;;;5042711;28;20036;-81
2021/07/07 10:04:32;;;;;;;1999.90;999.90;;;;;;;;;;5037691;28;20025;-80
2021/07/07 10:07:00;;;;;;;1999.90;999.90;;;;;;;;;;5044446;28;20043;-81
2021/07/07 10:09:26;;;;;;;1999.90;999.90;;;;;;;;;;5039147;28;20028;-80
2021/07/07 10:11:54;;;;;;;1999.90;999.90;;;;;;;;;;5044214;28;20063;-80
2021/07/07 10:14:21;;;;;;;1999.90;999.90;;;;;;;;;;5045296;28;20083;-81
2021/07/07 10:16:48;;;;;;;1999.90;999.90;;;;;;;;;;5046291;28;20044;-80
2021/07/07 10:19:15;;;;;;;1999.90;999.90;;;;;;;;;;5042676;28;20108;-80
2021/07/07 10:21:40;;;;;;;1999.90;999.90;;;;;;;;;;5043762;28;20036;-82
2021/07/07 10:24:07;;;;;;;136.63;44.95;;;;;;;;;;5047514;28;20029;-83
2021/07/07 10:26:33;;;;;;;5.28;2.33;;;;;;;;;;5043106;28;20016;-83
2021/07/07 10:28:59;;;;;;;5.57;2.20;;;;;;;;;;5042594;28;20021;-83
2021/07/07 10:31:56;;;;;;;14.32;2.33;;;;;;;;;;5041138;28;20029;-83
2021/07/07 10:34:24;;;;;;;92.22;9.77;;;;;;;;;;5059858;28;20678;-83
2021/07/07 10:36:50;;;;;;;2.03;1.30;;;;;;;;;;5045603;28;20029;-83
2021/07/07 10:39:17;;;;;;;1.20;1.10;;;;;;;;;;5044058;28;20128;-83
2021/07/07 10:41:43;;;;;;;68.32;12.05;;;;;;;;;;5043198;28;20024;-83
2021/07/07 10:44:24;;;;;;;25.60;24.40;;;;;;;;;;5046901;28;20082;-82
2021/07/07 10:46:51;;;;;;;19.52;18.63;;;;;;;;;;5038688;28;20032;-82
2021/07/07 10:49:17;;;;;;;18.77;17.85;;;;;;;;;;5042689;28;20445;-82
2021/07/07 10:51:51;;;;;;;32.92;30.55;;;;;;;;;;5045739;28;20020;-82
2021/07/07 10:54:20;;;;;;;55.28;52.47;;;;;;;;;;5039969;28;20044;-82
2021/07/07 10:56:46;;;;;;;;;;;;;;;;;;5051118;28;20101;-82
2021/07/07 10:59:47;;;;;;;1999.90;999.90;;;;;;;;;;5041161;28;19917;-82
2021/07/07 11:02:20;;;;;;;1999.90;999.90;;;;;;;;;;5030560;28;20128;-80
2021/07/07 11:04:47;;;;;;;1999.90;999.90;;;;;;;;;;5056765;28;20044;-80
2021/07/07 11:07:31;;;;;;;1999.90;999.90;;;;;;;;;;5038176;28;20573;-80
2021/07/07 11:10:14;;;;;;;1500.85;750.53;;;;;;;;;;5040579;28;20553;-80
2021/07/07 11:12:40;;;;;;;1.25;1.25;;;;;;;;;;5045892;28;20045;-81
2021/07/07 11:15:08;;;;;;;1.33;1.33;;;;;;;;;;5044632;28;20047;-80
2021/07/07 11:17:39;;;;;;;1.23;1.15;;;;;;;;;;5041575;28;20041;-80
2021/07/07 11:20:08;;;;;;;2.08;1.98;;;;;;;;;;5055954;28;20037;-80
2021/07/07 11:22:34;;;;;;;1.83;1.77;;;;;;;;;;5045944;28;20035;-80
2021/07/07 11:25:04;;;;;;;1.13;1.13;;;;;;;;;;5043101;28;20097;-80
2021/07/07 11:27:32;;;;;;;1.92;1.83;;;;;;;;;;5042348;28;20025;-80
2021/07/07 11:29:58;;;;;;;1.80;1.70;;;;;;;;;;5042764;28;20369;-79
2021/07/07 11:32:32;;;;;;;147.45;131.52;;;;;;;;;;5040707;28;20162;-79
2021/07/07 11:34:59;;;;;;;2.30;2.20;;;;;;;;;;5042327;28;20040;-80
2021/07/07 11:37:29;;;;;;;3.10;2.90;;;;;;;;;;5042167;28;20032;-80
2021/07/07 11:40:14;;;;;;;6.13;5.78;;;;;;;;;;5038927;28;20025;-78
2021/07/07 11:43:05;;;;;;;2.83;2.60;;;;;;;;;;5042064;28;20086;-80
2021/07/07 11:46:12;;;;;;;47.17;44.30;;;;;;;;;;5046408;28;20025;-80
2021/07/07 11:51:16;;;;;;;1999.90;999.90;;;;;;;;;;5043030;28;20025;-79
2021/07/07 11:53:53;;;;;;;1999.90;999.90;;;;;;;;;;5044184;28;20025;-79
2021/07/07 11:56:23;;;;;;;1999.90;999.90;;;;;;;;;;5043730;28;20116;-80
2021/07/07 11:58:57;;;;;;;1999.90;999.90;;;;;;;;;;5041985;28;20032;-80
2021/07/07 12:01:25;;;;;;;1999.90;999.90;;;;;;;;;;5046044;28;20028;-79
2021/07/07 12:03:56;;;;;;;1999.90;999.90;;;;;;;;;;5040889;28;20028;-78
2021/07/07 12:06:36;;;;;;;2.55;2.45;;;;;;;;;;5040190;28;20093;-78
2021/07/07 12:09:25;;;;;;;1999.90;999.90;;;;;;;;;;5042571;28;20041;-78
2021/07/07 12:11:57;;;;;;;1999.90;999.90;;;;;;;;;;5043224;28;20025;-78
2021/07/07 12:14:25;;;;;;;1999.90;999.90;;;;;;;;;;5048545;28;20131;-79
2021/07/07 12:16:51;;;;;;;1999.90;999.90;;;;;;;;;;5044058;28;20473;-78
2021/07/07 12:19:17;;;;;;;1999.90;999.90;;;;;;;;;;5040181;28;20055;-79
2021/07/07 12:21:46;;;;;;;1999.90;999.90;;;;;;;;;;5040357;28;20121;-79
2021/07/07 12:24:26;;;;;;;1999.90;999.90;;;;;;;;;;5048630;28;20029;-79
2021/07/07 12:26:57;;;;;;;1999.90;999.90;;;;;;;;;;5049053;28;20060;-79
2021/07/07 12:29:25;;;;;;;1999.90;999.90;;;;;;;;;;5045586;28;20031;-79
2021/07/07 12:31:56;;;;;;;1999.90;999.90;;;;;;;;;;5042995;28;20476;-79
2021/07/07 12:34:31;;;;;;;1999.90;999.90;;;;;;;;;;5047563;28;20160;-78
2021/07/07 12:36:59;;;;;;;1999.90;999.90;;;;;;;;;;5041763;28;20536;-78
2021/07/07 12:39:29;;;;;;;1999.90;999.90;;;;;;;;;;5043269;28;20063;-78
2021/07/07 12:42:02;;;;;;;1999.90;999.90;;;;;;;;;;5047466;28;20499;-78
2021/07/07 12:44:39;;;;;;;1999.90;999.90;;;;;;;;;;5044530;28;20036;-77
2021/07/07 12:47:13;;;;;;;1999.90;999.90;;;;;;;;;;5044412;28;20488;-77
2021/07/07 12:49:43;;;;;;;1999.90;999.90;;;;;;;;;;5047985;28;20041;-78
2021/07/07 12:52:17;;;;;;;1999.90;999.90;;;;;;;;;;5044684;28;20071;-78
2021/07/07 12:54:43;;;;;;;33.17;10.68;;;;;;;;;;5045993;28;20476;-78
2021/07/07 12:57:09;;;;;;;1.50;1.50;;;;;;;;;;5047513;28;20107;-78
2021/07/07 12:59:34;;;;;;;1.55;1.55;;;;;;;;;;5043957;28;20037;-79
2021/07/07 13:02:04;;;;;;;1.73;1.73;;;;;;;;;;5049519;28;20029;-79
2021/07/07 13:04:30;;;;;;;4.63;1.85;;;;;;;;;;5041792;28;20538;-79
2021/07/07 13:07:09;;;;;;;1.52;1.52;;;;;;;;;;5045280;28;20037;-79
2021/07/07 13:09:36;;;;;;;1.90;1.90;;;;;;;;;;5051351;28;20055;-79
2021/07/07 13:12:07;;;;;;;1.27;1.27;;;;;;;;;;5048893;28;20040;-79
2021/07/07 13:14:33;;;;;;;1.40;1.40;;;;;;;;;;5046738;28;20094;-79
2021/07/07 13:16:59;;;;;;;1.60;1.60;;;;;;;;;;5043448;28;20021;-79
2021/07/07 13:19:36;;;;;;;2.17;2.08;;;;;;;;;;5039545;28;20037;-78
2021/07/07 13:22:01;;;;;;;1.70;1.70;;;;;;;;;;5040620;28;20029;-78
2021/07/07 13:24:32;;;;;;;1.48;1.48;;;;;;;;;;5046007;28;20055;-77
2021/07/07 13:26:58;;;;;;;0.90;0.90;;;;;;;;;;5042553;28;20431;-78
2021/07/07 13:29:32;;;;;;;56.38;7.55;;;;;;;;;;5040508;28;20102;-78
2021/07/07 13:32:02;;;;;;;2.80;2.60;;;;;;;;;;5047013;28;20025;-78
2021/07/07 13:34:29;;;;;;;52.10;43.20;;;;;;;;;;5045100;28;20070;-77
2021/07/07 13:36:54;;;;;;;3.55;1.30;;;;;;;;;;5040571;28;20029;-77
2021/07/07 13:39:22;;;;;;;3.83;3.20;;;;;;;;;;5045818;28;20029;-77
2021/07/07 13:41:47;;;;;;;1.65;1.13;;;;;;;;;;5043641;28;20029;-76
2021/07/07 13:44:13;;;;;;;1.42;1.00;;;;;;;;;;5046070;28;20166;-78
2021/07/07 13:46:38;;;;;;;1.20;1.02;;;;;;;;;;5042050;28;20370;-79
2021/07/07 13:49:04;;;;;;;1.10;1.00;;;;;;;;;;5041145;28;20032;-79
2021/07/07 13:51:29;;;;;;;3.58;1.10;;;;;;;;;;5044332;28;20036;-78
2021/07/07 13:53:56;;;;;;;2.10;0.90;;;;;;;;;;5047269;28;20036;-76
2021/07/07 13:56:21;;;;;;;1.08;0.98;;;;;;;;;;5043832;28;20111;-76
2021/07/07 13:58:47;;;;;;;0.95;0.90;;;;;;;;;;5035689;28;20120;-80
2021/07/07 14:01:12;;;;;;;1.73;1.08;;;;;;;;;;5045738;28;20120;-77
2021/07/07 14:03:38;;;;;;;1.10;1.00;;;;;;;;;;5043429;28;20116;-77
2021/07/07 14:06:04;;;;;;;2.20;1.00;;;;;;;;;;5044562;28;20433;-78
2021/07/07 14:08:29;;;;;;;2.20;2.10;;;;;;;;;;5036406;28;20029;-77
2021/07/07 14:10:55;;;;;;;2.25;2.17;;;;;;;;;;5042916;28;20026;-78
2021/07/07 14:13:20;;;;;;;4.35;4.25;;;;;;;;;;5046436;28;20027;-78
2021/07/07 14:15:45;;;;;;;1999.90;999.90;;;;;;;;;;5039475;28;20378;-76